Time;durP1;ratioP1;P1;durP2;ratioP2;P2;SDS_P1;SDS_P2;PMS_P1;PMS_P2;Temp;Humidity;BMP_temperature;BMP_pressure;BME280_temperature;BME280_humidity;BME280_pressure;Samples;Min_cycle;Max_cycle;Signal;HPM_P1;HPM_P2
2022/04/01 00:00:00;;;;;;;5.10;1.20;;;;;;;0.89;100.00;100288.59;7392602;19;20198;-53
2022/04/01 00:02:29;;;;;;;10.63;4.37;;;;;;;0.83;100.00;100293.22;7401585;19;20456;-55
2022/04/01 00:04:59;;;;;;;5.93;1.40;;;;;;;0.86;100.00;100279.88;7390112;19;20534;-51
2022/04/01 00:07:31;;;;;;;3.47;1.10;;;;;;;0.81;100.00;100284.59;7401605;19;20122;-53
2022/04/01 00:10:01;;;;;;;9.60;3.90;;;;;;;0.75;100.00;100287.59;7388118;19;20437;-52
2022/04/01 00:12:30;;;;;;;6.00;1.77;;;;;;;0.72;100.00;100281.41;7401150;19;20390;-52
2022/04/01 00:15:00;;;;;;;4.07;1.50;;;;;;;0.80;100.00;100287.91;7394320;19;20646;-52
2022/04/01 00:17:30;;;;;;;4.40;1.40;;;;;;;0.76;100.00;100285.91;7401294;19;20371;-48
2022/04/01 00:19:59;;;;;;;4.20;1.30;;;;;;;0.78;100.00;100282.72;7392727;19;20430;-53
2022/04/01 00:22:31;;;;;;;4.78;1.50;;;;;;;0.72;100.00;100283.94;7401181;19;20399;-48
2022/04/01 00:25:01;;;;;;;3.87;1.07;;;;;;;0.73;100.00;100281.50;7391660;19;20196;-52
2022/04/01 00:27:30;;;;;;;6.50;2.25;;;;;;;0.72;100.00;100279.72;7401212;19;20375;-56
2022/04/01 00:30:00;;;;;;;4.10;1.17;;;;;;;0.74;100.00;100278.19;7392178;19;20190;-49
2022/04/01 00:32:31;;;;;;;12.87;3.40;;;;;;;0.73;100.00;100278.97;7400526;19;20908;-53
2022/04/01 00:35:01;;;;;;;6.10;1.50;;;;;;;0.69;100.00;100278.63;7393748;19;20802;-54
2022/04/01 00:37:33;;;;;;;10.27;1.50;;;;;;;0.69;100.00;100274.44;7400477;19;20135;-54
2022/04/01 00:40:03;;;;;;;20.10;6.43;;;;;;;0.74;100.00;100277.31;7392823;19;20195;-53
2022/04/01 00:42:33;;;;;;;10.15;1.98;;;;;;;0.73;100.00;100278.06;7399752;19;20591;-55
2022/04/01 00:45:02;;;;;;;11.38;4.03;;;;;;;0.72;100.00;100277.19;7393726;19;20191;-49
2022/04/01 00:47:32;;;;;;;19.50;7.43;;;;;;;0.67;100.00;100271.78;7400057;19;20123;-52
2022/04/01 00:50:01;;;;;;;4.68;1.45;;;;;;;0.65;100.00;100278.41;7395687;19;20193;-53
2022/04/01 00:52:34;;;;;;;10.90;4.00;;;;;;;0.68;100.00;100280.28;7400096;19;20133;-48
2022/04/01 00:55:05;;;;;;;14.15;3.08;;;;;;;0.73;100.00;100280.63;7389421;19;20523;-53
2022/04/01 00:57:35;;;;;;;12.00;3.33;;;;;;;0.85;100.00;100281.53;7399069;19;20130;-53
2022/04/01 01:00:06;;;;;;;10.20;2.50;;;;;;;0.82;100.00;100273.66;7393414;19;20186;-54
2022/04/01 01:02:40;;;;;;;3.27;1.07;;;;;;;1.02;100.00;100274.25;7399468;19;20398;-48
2022/04/01 01:05:10;;;;;;;3.90;1.00;;;;;;;1.06;100.00;100276.22;7392657;19;20435;-50
2022/04/01 01:07:44;;;;;;;3.93;1.30;;;;;;;1.21;100.00;100276.44;7398828;19;20182;-52
2022/04/01 01:10:15;;;;;;;9.90;3.20;;;;;;;1.11;100.00;100279.09;7397099;19;20424;-49
2022/04/01 01:12:44;;;;;;;11.18;2.55;;;;;;;1.01;100.00;100265.72;7399339;19;20442;-50
2022/04/01 01:15:18;;;;;;;3.40;1.00;;;;;;;0.92;100.00;100273.56;7396133;19;20181;-51
2022/04/01 01:17:49;;;;;;;5.23;2.03;;;;;;;0.90;100.00;100274.22;7391658;19;20723;-56
2022/04/01 01:20:20;;;;;;;6.75;2.35;;;;;;;1.01;100.00;100272.47;7397879;19;20474;-50
2022/04/01 01:22:53;;;;;;;4.65;1.23;;;;;;;1.15;100.00;100271.81;7392850;19;20132;-50
2022/04/01 01:25:25;;;;;;;3.60;1.10;;;;;;;1.03;100.00;100264.19;7398312;19;20127;-48
2022/04/01 01:27:55;;;;;;;4.80;1.20;;;;;;;0.79;100.00;100274.34;7391646;19;20408;-50
2022/04/01 01:30:25;;;;;;;6.87;1.90;;;;;;;1.00;100.00;100270.69;7398107;19;20143;-51
2022/04/01 01:32:55;;;;;;;10.90;2.28;;;;;;;1.07;100.00;100263.63;7393719;19;20741;-50
2022/04/01 01:35:25;;;;;;;10.53;4.83;;;;;;;1.33;100.00;100256.97;7395758;19;20132;-48
2022/04/01 01:37:54;;;;;;;17.47;8.00;;;;;;;1.87;100.00;100262.41;7390494;19;20491;-48
2022/04/01 01:40:26;;;;;;;39.90;17.97;;;;;;;1.94;100.00;100263.69;7398176;19;20392;-48
2022/04/01 01:42:56;;;;;;;9.63;2.73;;;;;;;1.50;100.00;100267.47;7393048;19;20730;-50
2022/04/01 01:45:29;;;;;;;8.43;2.83;;;;;;;1.12;100.00;100261.41;7398006;19;20387;-49
2022/04/01 01:47:58;;;;;;;4.57;1.97;;;;;;;1.07;100.00;100265.28;7384270;19;20410;-55
2022/04/01 01:55:56;;;;;;;9.90;4.33;;;;;;;1.03;100.00;100263.31;7396891;19;20456;-53
2022/04/01 01:58:26;;;;;;;9.17;3.77;;;;;;;0.93;100.00;100265.16;7391703;19;20438;-49
2022/04/01 02:00:56;;;;;;;11.07;2.33;;;;;;;0.93;100.00;100265.16;7397320;19;20886;-56
2022/04/01 02:03:25;;;;;;;10.03;4.27;;;;;;;1.02;100.00;100264.09;7389936;19;20503;-50
2022/04/01 02:05:55;;;;;;;6.50;1.90;;;;;;;0.90;100.00;100259.88;7397029;19;21018;-50
2022/04/01 02:08:24;;;;;;;13.23;4.80;;;;;;;1.02;100.00;100266.63;7390355;19;20449;-47
2022/04/01 02:10:56;;;;;;;5.95;1.40;;;;;;;0.87;100.00;100261.31;7397279;19;20389;-51
2022/04/01 02:13:27;;;;;;;8.40;3.30;;;;;;;0.86;100.00;100257.88;7387284;19;20186;-52
2022/04/01 02:15:56;;;;;;;5.33;2.23;;;;;;;0.95;100.00;100257.66;7397103;19;20138;-50
2022/04/01 02:18:29;;;;;;;12.52;4.55;;;;;;;0.99;100.00;100254.59;7388865;19;20445;-50
2022/04/01 02:20:59;;;;;;;10.70;4.37;;;;;;;0.88;100.00;100240.22;7397269;19;20135;-50
2022/04/01 02:23:29;;;;;;;8.85;2.78;;;;;;;0.82;100.00;100250.78;7391023;19;20442;-49
2022/04/01 02:26:01;;;;;;;4.20;1.83;;;;;;;1.01;100.00;100259.75;7396893;19;20131;-49
2022/04/01 02:28:31;;;;;;;5.07;2.07;;;;;;;1.11;100.00;100267.28;7390007;19;20455;-50
2022/04/01 02:31:00;;;;;;;5.70;1.98;;;;;;;1.06;100.00;100259.31;7396897;19;20745;-54
2022/04/01 02:33:31;;;;;;;10.13;3.30;;;;;;;1.07;100.00;100250.03;7390988;19;20221;-53
2022/04/01 02:36:02;;;;;;;13.80;4.13;;;;;;;1.20;100.00;100255.25;7396598;19;20741;-48
2022/04/01 02:38:33;;;;;;;7.87;2.90;;;;;;;1.15;100.00;100259.09;7387607;19;20831;-51
2022/04/01 02:41:05;;;;;;;6.53;2.60;;;;;;;1.13;100.00;100269.94;7396867;19;20631;-47
2022/04/01 02:43:35;;;;;;;4.20;1.50;;;;;;;1.11;100.00;100261.28;7389117;19;20257;-49
2022/04/01 02:46:05;;;;;;;6.93;2.50;;;;;;;1.17;100.00;100259.19;7396279;19;20398;-52
2022/04/01 02:48:35;;;;;;;5.97;2.00;;;;;;;1.09;100.00;100258.66;7388378;19;20434;-50
2022/04/01 02:51:05;;;;;;;4.40;1.17;;;;;;;1.08;100.00;100249.28;7392743;19;20375;-53
2022/04/01 02:53:34;;;;;;;7.77;1.70;;;;;;;0.99;100.00;100246.06;7387844;19;20751;-53
2022/04/01 02:56:07;;;;;;;6.67;2.60;;;;;;;0.96;100.00;100256.03;7390392;19;20369;-52
2022/04/01 02:58:36;;;;;;;9.55;3.45;;;;;;;0.98;100.00;100246.84;7386099;19;20403;-49
2022/04/01 03:01:06;;;;;;;6.60;2.33;;;;;;;1.18;100.00;100245.75;7392519;19;20585;-53
2022/04/01 03:03:35;;;;;;;4.43;1.60;;;;;;;1.07;100.00;100256.00;7387277;19;20398;-54
2022/04/01 03:06:05;;;;;;;5.53;1.37;;;;;;;1.05;100.00;100249.94;7393864;19;21001;-53
2022/04/01 03:08:35;;;;;;;17.05;5.40;;;;;;;1.07;100.00;100252.56;7384914;19;20962;-52
2022/04/01 03:11:07;;;;;;;8.48;2.90;;;;;;;1.06;100.00;100256.78;7393208;19;20483;-55
2022/04/01 03:13:36;;;;;;;6.63;1.87;;;;;;;1.16;100.00;100253.25;7383401;19;20205;-51
2022/04/01 03:16:06;;;;;;;33.87;13.87;;;;;;;1.26;100.00;100251.34;7389946;19;20371;-51
2022/04/01 03:18:40;;;;;;;20.40;7.40;;;;;;;1.12;100.00;100256.34;7385833;19;20429;-52
2022/04/01 03:21:11;;;;;;;14.63;4.38;;;;;;;1.05;100.00;100249.03;7392477;19;20127;-48
2022/04/01 03:23:41;;;;;;;25.60;9.93;;;;;;;1.12;100.00;100251.25;7383938;19;20194;-50
2022/04/01 03:26:13;;;;;;;6.20;2.47;;;;;;;1.07;100.00;100257.66;7391776;19;20380;-55
2022/04/01 03:28:43;;;;;;;13.50;6.00;;;;;;;1.29;100.00;100260.06;7386834;19;20481;-48
2022/04/01 03:31:14;;;;;;;6.30;2.07;;;;;;;1.36;100.00;100263.94;7399259;19;20143;-54
2022/04/01 03:33:44;;;;;;;15.43;6.80;;;;;;;1.35;100.00;100268.13;7392803;19;20399;-53
2022/04/01 03:36:14;;;;;;;5.50;1.75;;;;;;;1.31;100.00;100268.72;7396734;19;20375;-54
2022/04/01 03:38:44;;;;;;;6.37;2.07;;;;;;;1.22;100.00;100265.50;7390200;19;20201;-56
2022/04/01 03:41:16;;;;;;;7.43;1.70;;;;;;;1.16;100.00;100268.50;7398660;19;20406;-51
2022/04/01 03:43:46;;;;;;;5.00;1.60;;;;;;;1.15;100.00;100271.81;7392995;19;20908;-50
2022/04/01 03:46:18;;;;;;;4.05;1.35;;;;;;;1.17;100.00;100280.44;7397733;19;20376;-51
2022/04/01 03:48:51;;;;;;;7.20;2.00;;;;;;;1.12;100.00;100276.66;7390545;19;20253;-51
2022/04/01 03:51:24;;;;;;;6.50;2.47;;;;;;;1.24;100.00;100274.13;7398425;19;20593;-52
2022/04/01 03:53:57;;;;;;;5.82;2.17;;;;;;;1.03;100.00;100271.78;7393224;19;20419;-52
2022/04/01 03:56:32;;;;;;;5.80;1.83;;;;;;;1.10;100.00;100279.88;7394978;19;20142;-52
2022/04/01 03:59:04;;;;;;;9.40;2.60;;;;;;;1.35;100.00;100267.28;7391512;19;20197;-48
2022/04/01 04:01:34;;;;;;;4.50;1.70;;;;;;;1.21;100.00;100269.72;7397890;19;20127;-54
2022/04/01 04:04:04;;;;;;;9.73;2.40;;;;;;;1.24;100.00;100274.13;7392038;19;20227;-53
2022/04/01 04:06:36;;;;;;;6.20;2.00;;;;;;;1.17;100.00;100270.25;7397630;19;20388;-53
2022/04/01 04:09:07;;;;;;;4.77;1.90;;;;;;;1.22;100.00;100268.03;7387941;19;20199;-50
2022/04/01 04:11:39;;;;;;;7.03;2.70;;;;;;;1.14;100.00;100270.06;7397544;19;20381;-56
2022/04/01 04:14:09;;;;;;;7.73;2.40;;;;;;;1.17;100.00;100260.09;7391537;19;20401;-53
2022/04/01 04:16:42;;;;;;;9.15;3.42;;;;;;;1.06;100.00;100261.88;7394987;19;20377;-51
2022/04/01 04:19:29;;;;;;;5.93;2.20;;;;;;;1.02;100.00;100269.16;7388988;19;20221;-52
2022/04/01 04:22:07;;;;;;;16.15;5.95;;;;;;;1.06;100.00;100266.06;7396470;19;20474;-50
2022/04/01 04:24:39;;;;;;;6.00;3.10;;;;;;;1.01;100.00;100263.19;7392599;19;21029;-48
2022/04/01 04:27:15;;;;;;;19.60;7.57;;;;;;;1.09;100.00;100268.84;7400756;19;20379;-56
2022/04/01 04:29:50;;;;;;;9.50;3.90;;;;;;;1.17;100.00;100267.72;7392436;19;20208;-52
2022/04/01 04:32:29;;;;;;;8.87;4.63;;;;;;;1.24;100.00;100275.78;7396484;19;20769;-51
2022/04/01 04:34:59;;;;;;;6.73;2.40;;;;;;;1.23;100.00;100274.88;7389883;19;20486;-51
2022/04/01 04:37:30;;;;;;;9.27;2.80;;;;;;;1.02;100.00;100270.03;7396823;19;20360;-49
2022/04/01 04:40:01;;;;;;;9.30;3.07;;;;;;;1.09;100.00;100279.00;7391391;19;20197;-54
2022/04/01 04:42:34;;;;;;;8.77;3.17;;;;;;;1.21;100.00;100274.78;7399207;19;20443;-50
2022/04/01 04:45:04;;;;;;;18.05;6.13;;;;;;;1.14;100.00;100280.22;7390980;19;20391;-50
2022/04/01 04:47:34;;;;;;;12.63;4.90;;;;;;;1.68;100.00;100272.94;7395806;19;20468;-48
2022/04/01 04:50:05;;;;;;;19.87;9.37;;;;;;;2.01;100.00;100283.69;7388911;19;20402;-54
2022/04/01 04:52:35;;;;;;;42.03;20.17;;;;;;;2.64;100.00;100280.19;7395502;19;20379;-53
2022/04/01 04:55:06;;;;;;;33.10;10.43;;;;;;;2.61;100.00;100301.25;7395081;19;20442;-54
2022/04/01 04:57:42;;;;;;;7.23;3.70;;;;;;;2.08;100.00;100307.91;7395166;19;20409;-49
2022/04/01 05:00:12;;;;;;;11.60;3.20;;;;;;;1.81;100.00;100311.97;7389590;19;20415;-52
2022/04/01 05:02:49;;;;;;;9.87;3.93;;;;;;;1.58;100.00;100299.41;7394202;19;20462;-52
2022/04/01 05:05:24;;;;;;;27.70;8.90;;;;;;;1.24;100.00;100314.81;7398223;19;20432;-50
2022/04/01 05:08:13;;;;;;;22.33;9.50;;;;;;;1.19;100.00;100309.38;7389863;19;20417;-48
2022/04/01 05:10:46;;;;;;;9.23;2.83;;;;;;;1.16;100.00;100316.78;7398367;19;20925;-52
2022/04/01 05:13:25;;;;;;;7.23;2.70;;;;;;;1.04;100.00;100319.28;7387421;19;20762;-54
2022/04/01 05:15:55;;;;;;;10.40;4.40;;;;;;;1.06;100.00;100321.97;7394498;19;20393;-52
2022/04/01 05:18:28;;;;;;;10.07;3.73;;;;;;;0.99;100.00;100318.09;7387606;19;20419;-48
2022/04/01 05:20:59;;;;;;;26.02;9.05;;;;;;;0.99;100.00;100318.09;7398017;19;20371;-51
2022/04/01 05:23:40;;;;;;;22.80;8.82;;;;;;;1.00;100.00;100326.59;7391161;19;20196;-49
2022/04/01 05:26:13;;;;;;;9.02;2.95;;;;;;;1.02;100.00;100320.84;7395229;19;20123;-52
2022/04/01 05:28:48;;;;;;;30.60;11.13;;;;;;;0.98;100.00;100328.16;7387409;19;20194;-47
2022/04/01 05:31:32;;;;;;;13.03;4.17;;;;;;;0.91;100.00;100327.69;7394541;19;20130;-47
2022/04/01 05:34:08;;;;;;;11.60;3.50;;;;;;;0.91;100.00;100325.16;7389349;19;20394;-50
2022/04/01 05:36:44;;;;;;;7.60;3.25;;;;;;;1.00;100.00;100332.56;7393539;19;20396;-48
2022/04/01 05:39:15;;;;;;;12.53;5.07;;;;;;;1.05;100.00;100330.34;7385909;19;20194;-51
2022/04/01 05:41:45;;;;;;;13.47;4.97;;;;;;;1.04;100.00;100328.59;7398423;19;20463;-53
2022/04/01 05:44:17;;;;;;;14.50;4.70;;;;;;;1.02;100.00;100330.16;7385907;19;21052;-53
2022/04/01 05:46:48;;;;;;;15.60;5.70;;;;;;;1.07;100.00;100341.50;7393120;19;20380;-52
2022/04/01 05:49:18;;;;;;;19.73;7.13;;;;;;;1.09;100.00;100332.38;7387364;19;20842;-52
2022/04/01 05:51:48;;;;;;;9.60;3.27;;;;;;;1.09;100.00;100342.53;7392427;19;20398;-50
2022/04/01 05:54:19;;;;;;;14.57;4.90;;;;;;;1.07;100.00;100347.50;7386050;19;20426;-54
2022/04/01 05:56:49;;;;;;;9.77;3.53;;;;;;;1.07;100.00;100352.56;7395289;19;20954;-54
2022/04/01 05:59:23;;;;;;;24.87;9.80;;;;;;;1.11;100.00;100350.25;7384359;19;20413;-51
2022/04/01 06:02:07;;;;;;;15.50;6.20;;;;;;;1.11;100.00;100345.16;7393416;19;20367;-55
2022/04/01 06:04:51;;;;;;;7.07;3.50;;;;;;;1.10;100.00;100353.56;7387758;19;20196;-49
2022/04/01 06:07:29;;;;;;;11.82;3.60;;;;;;;1.19;100.00;100355.13;7393091;19;20395;-53
2022/04/01 06:10:06;;;;;;;68.70;19.63;;;;;;;1.13;100.00;100349.59;7386025;19;20196;-52
2022/04/01 06:12:43;;;;;;;8.20;2.87;;;;;;;1.11;100.00;100356.22;7396671;19;20395;-55
2022/04/01 06:15:20;;;;;;;11.38;4.40;;;;;;;1.07;100.00;100349.13;7393046;19;20411;-54
2022/04/01 06:17:57;;;;;;;10.50;4.15;;;;;;;1.12;100.00;100357.97;7385043;19;20142;-53
2022/04/01 06:20:28;;;;;;;13.43;4.20;;;;;;;1.14;100.00;100363.19;7393618;19;20546;-48
2022/04/01 06:23:03;;;;;;;8.10;3.40;;;;;;;1.26;100.00;100366.63;7384465;19;20396;-49
2022/04/01 06:25:33;;;;;;;17.23;6.93;;;;;;;1.32;100.00;100371.25;7390795;19;20138;-50
2022/04/01 06:28:20;;;;;;;16.00;4.13;;;;;;;1.28;100.00;100371.84;7388633;19;20415;-50
2022/04/01 06:30:52;;;;;;;15.77;3.70;;;;;;;1.31;100.00;100382.22;7397638;19;20755;-52
2022/04/01 06:33:30;;;;;;;9.30;3.00;;;;;;;1.34;100.00;100379.91;7387108;19;20436;-50
2022/04/01 06:36:03;;;;;;;60.83;20.57;;;;;;;1.41;100.00;100373.59;7392426;19;20374;-55
2022/04/01 06:38:41;;;;;;;14.37;5.63;;;;;;;1.41;100.00;100391.38;7384564;19;20409;-51
2022/04/01 06:41:13;;;;;;;14.07;5.15;;;;;;;1.37;100.00;100395.38;7392648;19;20395;-47
2022/04/01 06:43:43;;;;;;;13.23;4.63;;;;;;;1.37;100.00;100395.38;7384796;19;20194;-55
2022/04/01 06:46:16;;;;;;;8.80;4.00;;;;;;;1.44;100.00;100396.72;7392790;19;20390;-55
2022/04/01 06:48:45;;;;;;;18.20;7.17;;;;;;;1.46;100.00;100396.06;7385517;19;20411;-51
2022/04/01 06:51:17;;;;;;;11.20;4.33;;;;;;;1.45;100.00;100394.25;7392017;19;20396;-50
2022/04/01 06:53:46;;;;;;;28.97;9.73;;;;;;;1.55;100.00;100398.38;7386126;19;20726;-50
2022/04/01 06:56:16;;;;;;;27.20;8.80;;;;;;;1.61;100.00;100413.19;7391829;19;20388;-49
2022/04/01 06:58:47;;;;;;;11.93;4.00;;;;;;;1.60;100.00;100409.75;7386572;19;20208;-54
2022/04/01 07:01:19;;;;;;;12.90;4.17;;;;;;;1.57;100.00;100409.53;7391431;19;20386;-49
2022/04/01 07:03:48;;;;;;;13.10;4.17;;;;;;;1.55;100.00;100412.75;7387245;19;20435;-49
2022/04/01 07:06:19;;;;;;;23.73;8.83;;;;;;;1.61;100.00;100403.91;7399419;19;20380;-48
2022/04/01 07:08:49;;;;;;;13.07;4.00;;;;;;;1.64;100.00;100421.03;7390006;19;20507;-51
2022/04/01 07:11:19;;;;;;;9.13;3.00;;;;;;;1.65;100.00;100415.19;7403065;19;20393;-55
2022/04/01 07:13:49;;;;;;;15.70;5.10;;;;;;;1.67;100.00;100422.91;7398245;19;20413;-52
2022/04/01 07:16:21;;;;;;;6.33;3.10;;;;;;;1.78;100.00;100423.72;7400163;19;20384;-55
2022/04/01 07:18:50;;;;;;;15.23;5.50;;;;;;;1.84;100.00;100430.09;7391380;19;20406;-52
2022/04/01 07:21:20;;;;;;;10.80;3.63;;;;;;;1.88;100.00;100434.66;7398997;19;20387;-52
2022/04/01 07:23:50;;;;;;;6.50;3.17;;;;;;;1.84;100.00;100444.50;7392498;19;20411;-52
2022/04/01 07:26:19;;;;;;;33.83;12.20;;;;;;;1.93;100.00;100442.59;7394101;19;20410;-54
2022/04/01 07:28:49;;;;;;;16.33;6.40;;;;;;;1.92;100.00;100453.56;7387710;19;20445;-48
2022/04/01 07:34:27;;;;;;;13.60;4.73;;;;;;;2.04;100.00;100455.22;7391790;19;20404;-51
2022/04/01 07:36:57;;;;;;;7.87;3.87;;;;;;;2.00;100.00;100459.22;7399439;19;20458;-51
2022/04/01 07:39:26;;;;;;;15.63;6.17;;;;;;;2.05;100.00;100459.53;7389426;19;20411;-50
2022/04/01 07:41:56;;;;;;;15.93;6.30;;;;;;;2.18;100.00;100459.63;7397676;19;20375;-55
2022/04/01 07:44:26;;;;;;;12.90;3.57;;;;;;;2.18;100.00;100459.63;7393816;19;20433;-54
2022/04/01 07:46:59;;;;;;;11.53;4.07;;;;;;;2.12;100.00;100482.09;7397664;19;20416;-54
2022/04/01 07:49:28;;;;;;;8.10;3.83;;;;;;;2.12;100.00;100477.00;7386917;19;20410;-54
2022/04/01 07:52:20;;;;;;;23.60;9.40;;;;;;;2.18;100.00;100482.53;7395650;19;20396;-53
2022/04/01 07:54:52;;;;;;;16.43;5.90;;;;;;;2.60;100.00;100476.94;7390011;19;20434;-51
2022/04/01 07:57:22;;;;;;;19.03;8.03;;;;;;;2.94;100.00;100484.34;7399642;19;20394;-48
2022/04/01 07:59:51;;;;;;;46.30;20.70;;;;;;;3.50;100.00;100481.25;7390200;19;20405;-53
2022/04/01 08:02:23;;;;;;;42.23;20.60;;;;;;;3.38;100.00;100490.63;7398479;19;20402;-52
2022/04/01 08:04:53;;;;;;;48.37;22.90;;;;;;;3.37;100.00;100501.63;7391833;19;20417;-49
2022/04/01 08:07:22;;;;;;;11.80;5.33;;;;;;;3.21;100.00;100504.81;7396299;19;20417;-48
2022/04/01 08:09:52;;;;;;;13.10;6.07;;;;;;;3.18;100.00;100507.19;7383083;19;20398;-46
2022/04/01 08:12:22;;;;;;;9.60;4.57;;;;;;;2.99;100.00;100521.22;7401158;19;20392;-50
2022/04/01 08:14:52;;;;;;;8.43;3.70;;;;;;;2.76;100.00;100512.00;7391634;19;20975;-51
2022/04/01 08:17:24;;;;;;;16.27;8.00;;;;;;;2.94;100.00;100512.38;7395748;19;20384;-47
2022/04/01 08:19:54;;;;;;;19.77;9.37;;;;;;;2.90;100.00;100516.38;7383922;19;20453;-48
2022/04/01 08:22:23;;;;;;;26.47;9.43;;;;;;;2.86;100.00;100524.56;7399558;19;20384;-52
2022/04/01 08:24:53;;;;;;;24.13;12.70;;;;;;;3.12;100.00;100522.06;7390894;19;20426;-51
2022/04/01 08:27:23;;;;;;;16.10;5.80;;;;;;;3.06;100.00;100528.50;7394492;19;20398;-54
2022/04/01 08:29:55;;;;;;;22.03;10.77;;;;;;;3.37;100.00;100527.13;7387684;19;20916;-54
2022/04/01 08:32:29;;;;;;;18.40;7.10;;;;;;;3.16;100.00;100536.75;7396017;19;20439;-49
2022/04/01 08:34:59;;;;;;;12.87;6.30;;;;;;;3.24;100.00;100536.50;7383132;19;20409;-51
2022/04/01 08:37:28;;;;;;;18.23;8.90;;;;;;;3.35;100.00;100539.78;7393671;19;20368;-49
2022/04/01 08:39:58;;;;;;;17.07;6.60;;;;;;;3.28;100.00;100545.25;7386940;19;20398;-54
2022/04/01 08:42:29;;;;;;;16.67;5.60;;;;;;;3.08;100.00;100544.78;7394381;19;20411;-48
2022/04/01 08:44:59;;;;;;;27.43;12.27;;;;;;;3.29;100.00;100546.16;7391744;19;20451;-53
2022/04/01 08:47:31;;;;;;;16.47;7.10;;;;;;;3.38;100.00;100540.00;7399923;19;20398;-53
2022/04/01 08:50:01;;;;;;;9.47;5.10;;;;;;;3.04;100.00;100557.22;7391915;19;20443;-55
2022/04/01 08:52:30;;;;;;;29.17;12.17;;;;;;;3.61;100.00;100549.97;7396280;19;20685;-50
2022/04/01 08:55:06;;;;;;;29.13;10.90;;;;;;;3.72;100.00;100555.78;7393036;19;20449;-51
2022/04/01 08:57:37;;;;;;;21.90;9.30;;;;;;;3.48;100.00;100551.69;7394783;19;20379;-51
2022/04/01 09:00:40;;;;;;;66.67;31.03;;;;;;;3.93;100.00;100548.66;7394783;19;20447;-54
2022/04/01 09:03:13;;;;;;;42.53;18.13;;;;;;;4.29;100.00;100562.03;7390294;19;20413;-55
2022/04/01 09:05:46;;;;;;;21.83;10.30;;;;;;;4.05;100.00;100569.88;7395838;19;20742;-52
2022/04/01 09:08:17;;;;;;;14.93;6.57;;;;;;;3.89;100.00;100572.19;7390357;19;20501;-53
2022/04/01 09:10:55;;;;;;;30.50;11.57;;;;;;;3.87;100.00;100572.13;7394149;19;20414;-54
2022/04/01 09:13:27;;;;;;;21.83;8.93;;;;;;;3.61;100.00;100580.59;7388006;19;20407;-50
2022/04/01 09:15:57;;;;;;;27.37;6.67;;;;;;;3.55;100.00;100581.06;7399109;19;20396;-53
2022/04/01 09:18:44;;;;;;;14.97;6.10;;;;;;;3.24;100.00;100577.31;7386510;19;20935;-54
2022/04/01 09:21:15;;;;;;;7.23;3.20;;;;;;;3.50;100.00;100584.97;7395148;19;20390;-50
2022/04/01 09:23:49;;;;;;;14.63;4.43;;;;;;;3.14;100.00;100577.47;7388118;19;20763;-48
2022/04/01 09:26:23;;;;;;;10.17;3.50;;;;;;;3.06;100.00;100587.13;7393564;19;20374;-55
2022/04/01 09:28:54;;;;;;;6.60;3.07;;;;;;;3.04;100.00;100582.72;7383854;19;20483;-53
2022/04/01 09:31:33;;;;;;;9.70;2.77;;;;;;;3.13;100.00;100577.38;7394951;19;20396;-53
2022/04/01 09:34:14;;;;;;;6.53;2.77;;;;;;;3.15;100.00;100586.00;7390871;19;20432;-50
2022/04/01 09:36:45;;;;;;;8.43;4.53;;;;;;;2.98;100.00;100578.09;7394719;19;20370;-57
2022/04/01 09:39:16;;;;;;;7.33;2.80;;;;;;;2.96;100.00;100570.31;7390190;19;20461;-54
2022/04/01 09:41:48;;;;;;;10.03;2.70;;;;;;;3.00;100.00;100579.06;7394343;19;20477;-53
2022/04/01 09:44:29;;;;;;;8.87;3.73;;;;;;;2.87;100.00;100574.75;7387740;19;20415;-51
2022/04/01 09:47:01;;;;;;;8.30;3.57;;;;;;;2.94;100.00;100578.63;7394090;19;20390;-49
2022/04/01 09:49:36;;;;;;;6.83;3.10;;;;;;;2.99;100.00;100578.94;7386005;19;20925;-51
2022/04/01 09:52:08;;;;;;;6.17;3.20;;;;;;;2.99;100.00;100574.75;7398501;19;20755;-51
2022/04/01 09:54:45;;;;;;;11.07;3.17;;;;;;;3.01;100.00;100565.53;7389622;19;20510;-56
2022/04/01 09:57:15;;;;;;;14.77;5.17;;;;;;;2.94;100.00;100566.78;7397890;19;20375;-52
2022/04/01 09:59:45;;;;;;;37.73;14.53;;;;;;;3.03;100.00;100581.81;7386172;19;20965;-48
2022/04/01 10:02:15;;;;;;;24.37;8.47;;;;;;;3.13;100.00;100583.34;7394092;19;20377;-54
2022/04/01 10:04:47;;;;;;;22.43;6.70;;;;;;;3.07;100.00;100567.59;7384837;19;20953;-56
2022/04/01 10:07:17;;;;;;;16.47;5.80;;;;;;;3.07;100.00;100582.91;7397348;19;20404;-55
2022/04/01 10:09:48;;;;;;;13.40;4.00;;;;;;;3.25;100.00;100585.84;7381681;19;20414;-54
2022/04/01 10:12:37;;;;;;;10.43;3.87;;;;;;;3.23;100.00;100580.66;7393646;19;20853;-51
2022/04/01 10:15:08;;;;;;;10.07;3.70;;;;;;;3.36;100.00;100587.47;7384706;19;20810;-54
2022/04/01 10:17:58;;;;;;;26.77;11.40;;;;;;;3.35;100.00;100580.59;7386321;19;20383;-56
2022/04/01 10:20:33;;;;;;;14.33;6.67;;;;;;;3.33;100.00;100582.16;7392247;19;20363;-54
2022/04/01 10:23:04;;;;;;;28.53;10.13;;;;;;;3.26;100.00;100585.06;7385897;19;20426;-51
2022/04/01 10:25:42;;;;;;;16.67;5.50;;;;;;;3.42;100.00;100581.00;7392441;19;20382;-52
2022/04/01 10:28:11;;;;;;;9.70;4.30;;;;;;;3.25;100.00;100588.41;7382652;19;20748;-52
2022/04/01 10:30:42;;;;;;;7.77;2.50;;;;;;;3.40;100.00;100587.69;7393584;19;20375;-52
2022/04/01 10:33:24;;;;;;;7.77;3.17;;;;;;;3.34;100.00;100589.03;7386607;19;20421;-52
2022/04/01 10:35:57;;;;;;;6.80;2.80;;;;;;;3.60;100.00;100591.59;7392440;19;20539;-53
2022/04/01 10:38:30;;;;;;;15.63;5.47;;;;;;;3.62;100.00;100585.81;7382381;19;20427;-55
2022/04/01 10:41:12;;;;;;;5.93;2.23;;;;;;;3.78;100.00;100592.81;7392530;19;20422;-54
2022/04/01 10:43:43;;;;;;;13.70;5.60;;;;;;;3.71;100.00;100593.19;7384829;19;20394;-55
2022/04/01 10:46:15;;;;;;;6.87;2.90;;;;;;;3.55;100.00;100587.84;7392617;19;20394;-54
2022/04/01 10:52:04;;;;;;;5.53;2.30;;;;;;;3.46;100.00;100588.09;7391717;19;20387;-55
2022/04/01 10:54:42;;;;;;;14.27;5.27;;;;;;;3.54;100.00;100591.16;7388273;19;20871;-58
2022/04/01 10:57:14;;;;;;;20.63;7.20;;;;;;;3.80;100.00;100594.59;7392024;19;20388;-51
2022/04/01 10:59:44;;;;;;;15.70;6.30;;;;;;;3.79;100.00;100593.69;7381080;19;21281;-52
2022/04/01 11:02:15;;;;;;;13.63;4.77;;;;;;;3.82;100.00;100593.91;7392451;19;20395;-51
2022/04/01 11:04:47;;;;;;;10.60;2.90;;;;;;;3.83;100.00;100600.78;7385367;19;20917;-56
2022/04/01 11:07:37;;;;;;;12.20;4.27;;;;;;;3.64;100.00;100608.88;7392080;19;20390;-54
2022/04/01 11:10:10;;;;;;;9.37;3.10;;;;;;;3.67;100.00;100615.81;7384253;19;20542;-58
2022/04/01 11:12:42;;;;;;;16.50;5.43;;;;;;;3.69;100.00;100596.44;7395377;19;20471;-58
2022/04/01 11:15:17;;;;;;;9.63;3.23;;;;;;;3.67;100.00;100608.19;7388638;19;20401;-57
2022/04/01 11:18:09;;;;;;;16.50;7.33;;;;;;;3.69;100.00;100611.75;7387793;19;20409;-58
2022/04/01 11:20:42;;;;;;;6.27;2.80;;;;;;;3.77;100.00;100608.03;7389842;19;20379;-58
2022/04/01 11:23:15;;;;;;;7.60;3.00;;;;;;;3.85;100.00;100609.41;7385060;19;20920;-58
2022/04/01 11:25:59;;;;;;;10.47;3.13;;;;;;;3.86;100.00;100608.66;7391394;19;20724;-56
2022/04/01 11:28:31;;;;;;;20.67;7.23;;;;;;;3.85;100.00;100618.75;7383630;19;20644;-58
2022/04/01 11:31:18;;;;;;;4.83;2.43;;;;;;;3.76;100.00;100629.22;7391492;19;20359;-56
2022/04/01 11:34:01;;;;;;;11.10;3.20;;;;;;;3.62;100.00;100621.53;7384525;19;20419;-55
2022/04/01 11:36:32;;;;;;;21.17;7.33;;;;;;;3.75;100.00;100623.22;7391201;19;20761;-57
2022/04/01 11:39:04;;;;;;;16.23;7.30;;;;;;;4.02;100.00;100628.41;7385278;19;20430;-54
2022/04/01 11:41:54;;;;;;;10.17;4.00;;;;;;;4.10;100.00;100621.25;7390632;19;20383;-56
2022/04/01 11:44:25;;;;;;;5.63;2.63;;;;;;;4.00;100.00;100611.22;7382617;19;20413;-56
2022/04/01 11:46:58;;;;;;;11.80;3.97;;;;;;;3.79;100.00;100619.22;7390778;19;20451;-54
2022/04/01 11:49:32;;;;;;;54.60;21.73;;;;;;;3.87;100.00;100623.19;7385176;19;20422;-54
2022/04/01 11:52:01;;;;;;;6.33;2.63;;;;;;;3.86;100.00;100616.31;7398441;19;20914;-58
2022/04/01 11:54:34;;;;;;;5.10;2.43;;;;;;;3.84;100.00;100611.88;7394946;19;20776;-54